Metar z połowy godziny Komunikat METAR ze strony awiacja.imgw.pl Metar G30 EPKT METAR EPKT 162230Z 15007KT 4500 BR NSC M05/M07 Q1017 =